sensor_id;sensor_type;location;lat;lon;timestamp;P1;durP1;ratioP1;P2;durP2;ratioP2
1525;SDS011;756;49.982;8.240;2022-09-17T00:01:07;3.60;;;1.10;;
1525;SDS011;756;49.982;8.240;2022-09-17T00:03:38;3.40;;;1.53;;
1525;SDS011;756;49.982;8.240;2022-09-17T00:06:08;2.90;;;1.20;;
1525;SDS011;756;49.982;8.240;2022-09-17T00:08:37;3.27;;;1.40;;
1525;SDS011;756;49.982;8.240;2022-09-17T00:11:06;3.13;;;0.97;;
1525;SDS011;756;49.982;8.240;2022-09-17T00:13:36;5.67;;;1.20;;
1525;SDS011;756;49.982;8.240;2022-09-17T00:16:03;2.40;;;1.30;;
1525;SDS011;756;49.982;8.240;2022-09-17T00:18:30;4.97;;;1.43;;
1525;SDS011;756;49.982;8.240;2022-09-17T00:20:57;2.93;;;1.20;;
1525;SDS011;756;49.982;8.240;2022-09-17T00:23:24;4.37;;;2.00;;
1525;SDS011;756;49.982;8.240;2022-09-17T00:25:50;5.00;;;1.73;;
1525;SDS011;756;49.982;8.240;2022-09-17T00:28:17;5.17;;;1.60;;
1525;SDS011;756;49.982;8.240;2022-09-17T00:30:44;3.90;;;1.60;;
1525;SDS011;756;49.982;8.240;2022-09-17T00:33:15;3.50;;;1.00;;
1525;SDS011;756;49.982;8.240;2022-09-17T00:35:43;3.00;;;1.50;;
1525;SDS011;756;49.982;8.240;2022-09-17T00:38:10;3.30;;;1.07;;
1525;SDS011;756;49.982;8.240;2022-09-17T00:40:37;4.27;;;1.33;;
1525;SDS011;756;49.982;8.240;2022-09-17T00:43:04;4.50;;;2.13;;
1525;SDS011;756;49.982;8.240;2022-09-17T00:45:36;2.30;;;1.00;;
1525;SDS011;756;49.982;8.240;2022-09-17T00:48:05;6.37;;;1.40;;
1525;SDS011;756;49.982;8.240;2022-09-17T00:50:36;5.60;;;1.00;;
1525;SDS011;756;49.982;8.240;2022-09-17T00:53:13;2.87;;;1.40;;
1525;SDS011;756;49.982;8.240;2022-09-17T00:55:43;3.47;;;1.40;;
1525;SDS011;756;49.982;8.240;2022-09-17T00:58:14;1.70;;;1.50;;
1525;SDS011;756;49.982;8.240;2022-09-17T01:00:43;3.30;;;1.30;;
1525;SDS011;756;49.982;8.240;2022-09-17T01:03:12;2.30;;;1.43;;
1525;SDS011;756;49.982;8.240;2022-09-17T01:05:41;1.97;;;1.60;;
1525;SDS011;756;49.982;8.240;2022-09-17T01:08:51;3.43;;;1.30;;
1525;SDS011;756;49.982;8.240;2022-09-17T01:14:35;3.60;;;1.50;;
1525;SDS011;756;49.982;8.240;2022-09-17T01:28:46;3.10;;;2.03;;
1525;SDS011;756;49.982;8.240;2022-09-17T01:34:20;1.93;;;1.30;;
1525;SDS011;756;49.982;8.240;2022-09-17T01:39:59;2.93;;;1.57;;
1525;SDS011;756;49.982;8.240;2022-09-17T01:45:31;3.20;;;1.97;;
1525;SDS011;756;49.982;8.240;2022-09-17T01:48:08;5.93;;;1.50;;
1525;SDS011;756;49.982;8.240;2022-09-17T01:50:40;2.80;;;1.93;;
1525;SDS011;756;49.982;8.240;2022-09-17T01:53:12;2.80;;;1.60;;
1525;SDS011;756;49.982;8.240;2022-09-17T01:55:42;8.30;;;2.73;;
1525;SDS011;756;49.982;8.240;2022-09-17T02:00:38;4.00;;;1.30;;
1525;SDS011;756;49.982;8.240;2022-09-17T02:03:13;6.60;;;1.77;;
1525;SDS011;756;49.982;8.240;2022-09-17T02:06:00;4.50;;;1.77;;
1525;SDS011;756;49.982;8.240;2022-09-17T02:08:35;5.00;;;2.13;;
1525;SDS011;756;49.982;8.240;2022-09-17T02:11:07;3.00;;;1.73;;
1525;SDS011;756;49.982;8.240;2022-09-17T02:16:36;2.93;;;1.43;;
1525;SDS011;756;49.982;8.240;2022-09-17T02:21:47;7.53;;;1.77;;
1525;SDS011;756;49.982;8.240;2022-09-17T02:24:41;9.67;;;2.30;;
1525;SDS011;756;49.982;8.240;2022-09-17T02:27:23;3.33;;;1.67;;
1525;SDS011;756;49.982;8.240;2022-09-17T02:29:59;2.50;;;1.90;;
1525;SDS011;756;49.982;8.240;2022-09-17T02:32:25;5.70;;;2.20;;
1525;SDS011;756;49.982;8.240;2022-09-17T02:34:53;4.33;;;1.60;;
1525;SDS011;756;49.982;8.240;2022-09-17T02:37:19;1.70;;;1.37;;
1525;SDS011;756;49.982;8.240;2022-09-17T02:39:46;3.80;;;1.80;;
1525;SDS011;756;49.982;8.240;2022-09-17T02:45:12;5.33;;;1.93;;
1525;SDS011;756;49.982;8.240;2022-09-17T02:47:51;2.50;;;1.73;;
1525;SDS011;756;49.982;8.240;2022-09-17T02:50:50;17.63;;;7.47;;
1525;SDS011;756;49.982;8.240;2022-09-17T02:59:14;3.40;;;1.80;;
1525;SDS011;756;49.982;8.240;2022-09-17T03:02:17;5.10;;;1.50;;
1525;SDS011;756;49.982;8.240;2022-09-17T03:05:06;1.70;;;1.47;;
1525;SDS011;756;49.982;8.240;2022-09-17T03:07:33;3.67;;;1.57;;
1525;SDS011;756;49.982;8.240;2022-09-17T03:10:01;3.40;;;2.30;;
1525;SDS011;756;49.982;8.240;2022-09-17T03:12:28;2.13;;;1.63;;
1525;SDS011;756;49.982;8.240;2022-09-17T03:14:55;5.63;;;1.83;;
1525;SDS011;756;49.982;8.240;2022-09-17T03:17:22;5.40;;;1.90;;
1525;SDS011;756;49.982;8.240;2022-09-17T03:19:48;7.20;;;1.77;;
1525;SDS011;756;49.982;8.240;2022-09-17T03:22:15;6.77;;;1.80;;
1525;SDS011;756;49.982;8.240;2022-09-17T03:24:42;5.23;;;1.60;;
1525;SDS011;756;49.982;8.240;2022-09-17T03:27:08;4.83;;;2.50;;
1525;SDS011;756;49.982;8.240;2022-09-17T03:29:35;5.70;;;2.23;;
1525;SDS011;756;49.982;8.240;2022-09-17T03:32:02;1.70;;;1.60;;
1525;SDS011;756;49.982;8.240;2022-09-17T03:34:29;4.20;;;1.50;;
1525;SDS011;756;49.982;8.240;2022-09-17T03:36:56;2.90;;;1.70;;
1525;SDS011;756;49.982;8.240;2022-09-17T03:39:22;7.50;;;2.47;;
1525;SDS011;756;49.982;8.240;2022-09-17T03:41:49;5.40;;;1.87;;
1525;SDS011;756;49.982;8.240;2022-09-17T03:44:16;4.53;;;1.83;;
1525;SDS011;756;49.982;8.240;2022-09-17T03:46:44;2.80;;;1.80;;
1525;SDS011;756;49.982;8.240;2022-09-17T03:49:11;1.97;;;1.80;;
1525;SDS011;756;49.982;8.240;2022-09-17T03:51:37;3.60;;;1.87;;
1525;SDS011;756;49.982;8.240;2022-09-17T03:54:04;5.50;;;2.13;;
1525;SDS011;756;49.982;8.240;2022-09-17T03:56:31;3.30;;;1.63;;
1525;SDS011;756;49.982;8.240;2022-09-17T03:58:58;2.20;;;1.43;;
1525;SDS011;756;49.982;8.240;2022-09-17T04:01:26;5.40;;;1.77;;
1525;SDS011;756;49.982;8.240;2022-09-17T04:03:54;3.70;;;2.60;;
1525;SDS011;756;49.982;8.240;2022-09-17T04:06:21;2.87;;;2.10;;
1525;SDS011;756;49.982;8.240;2022-09-17T04:08:47;2.57;;;2.20;;
1525;SDS011;756;49.982;8.240;2022-09-17T04:11:14;2.80;;;2.10;;
1525;SDS011;756;49.982;8.240;2022-09-17T04:13:41;2.70;;;1.80;;
1525;SDS011;756;49.982;8.240;2022-09-17T04:16:07;5.03;;;2.27;;
1525;SDS011;756;49.982;8.240;2022-09-17T04:18:34;4.63;;;1.77;;
1525;SDS011;756;49.982;8.240;2022-09-17T04:21:01;3.50;;;2.57;;
1525;SDS011;756;49.982;8.240;2022-09-17T04:23:27;5.80;;;2.57;;
1525;SDS011;756;49.982;8.240;2022-09-17T04:25:54;3.43;;;2.60;;
1525;SDS011;756;49.982;8.240;2022-09-17T04:28:20;6.23;;;2.40;;
1525;SDS011;756;49.982;8.240;2022-09-17T04:30:48;2.57;;;2.10;;
1525;SDS011;756;49.982;8.240;2022-09-17T04:33:14;6.13;;;3.23;;
1525;SDS011;756;49.982;8.240;2022-09-17T04:35:41;4.77;;;2.67;;
1525;SDS011;756;49.982;8.240;2022-09-17T04:38:08;3.57;;;1.90;;
1525;SDS011;756;49.982;8.240;2022-09-17T04:40:35;2.97;;;1.90;;
1525;SDS011;756;49.982;8.240;2022-09-17T04:43:02;4.00;;;1.80;;
1525;SDS011;756;49.982;8.240;2022-09-17T04:45:29;4.43;;;1.57;;
1525;SDS011;756;49.982;8.240;2022-09-17T04:47:58;2.20;;;1.63;;
1525;SDS011;756;49.982;8.240;2022-09-17T04:50:24;4.80;;;2.23;;
1525;SDS011;756;49.982;8.240;2022-09-17T04:52:51;5.30;;;3.13;;
1525;SDS011;756;49.982;8.240;2022-09-17T04:55:18;5.67;;;2.70;;
1525;SDS011;756;49.982;8.240;2022-09-17T04:57:48;4.37;;;1.97;;
1525;SDS011;756;49.982;8.240;2022-09-17T05:00:16;2.60;;;1.80;;
1525;SDS011;756;49.982;8.240;2022-09-17T05:02:44;7.27;;;2.33;;
1525;SDS011;756;49.982;8.240;2022-09-17T05:05:13;7.20;;;1.97;;
1525;SDS011;756;49.982;8.240;2022-09-17T05:07:40;4.30;;;1.97;;
1525;SDS011;756;49.982;8.240;2022-09-17T05:10:08;3.00;;;1.67;;
1525;SDS011;756;49.982;8.240;2022-09-17T05:12:35;2.80;;;1.77;;
1525;SDS011;756;49.982;8.240;2022-09-17T05:15:02;4.13;;;2.00;;
1525;SDS011;756;49.982;8.240;2022-09-17T05:17:31;2.40;;;2.10;;
1525;SDS011;756;49.982;8.240;2022-09-17T05:19:57;7.57;;;2.50;;
1525;SDS011;756;49.982;8.240;2022-09-17T05:22:24;4.57;;;2.33;;
1525;SDS011;756;49.982;8.240;2022-09-17T05:24:51;4.70;;;2.47;;
1525;SDS011;756;49.982;8.240;2022-09-17T05:27:17;3.97;;;2.60;;
1525;SDS011;756;49.982;8.240;2022-09-17T05:29:44;7.97;;;2.77;;
1525;SDS011;756;49.982;8.240;2022-09-17T05:32:11;4.30;;;2.37;;
1525;SDS011;756;49.982;8.240;2022-09-17T05:34:37;3.80;;;2.57;;
1525;SDS011;756;49.982;8.240;2022-09-17T05:37:05;4.77;;;2.27;;
1525;SDS011;756;49.982;8.240;2022-09-17T05:39:35;6.67;;;2.43;;
1525;SDS011;756;49.982;8.240;2022-09-17T05:42:01;6.03;;;2.27;;
1525;SDS011;756;49.982;8.240;2022-09-17T05:44:28;5.53;;;2.53;;
1525;SDS011;756;49.982;8.240;2022-09-17T05:46:54;6.40;;;2.40;;
1525;SDS011;756;49.982;8.240;2022-09-17T05:49:21;8.27;;;2.50;;
1525;SDS011;756;49.982;8.240;2022-09-17T05:51:49;3.93;;;2.40;;
1525;SDS011;756;49.982;8.240;2022-09-17T05:54:16;3.30;;;2.47;;
1525;SDS011;756;49.982;8.240;2022-09-17T05:56:42;3.50;;;2.10;;
1525;SDS011;756;49.982;8.240;2022-09-17T05:59:09;3.37;;;2.10;;
1525;SDS011;756;49.982;8.240;2022-09-17T06:01:35;4.10;;;2.20;;
1525;SDS011;756;49.982;8.240;2022-09-17T06:04:02;3.70;;;2.17;;
1525;SDS011;756;49.982;8.240;2022-09-17T06:06:29;4.00;;;2.27;;
1525;SDS011;756;49.982;8.240;2022-09-17T06:08:59;10.47;;;2.57;;
1525;SDS011;756;49.982;8.240;2022-09-17T06:11:26;9.23;;;2.33;;
1525;SDS011;756;49.982;8.240;2022-09-17T06:13:53;5.87;;;2.80;;
1525;SDS011;756;49.982;8.240;2022-09-17T06:16:21;8.03;;;2.00;;
1525;SDS011;756;49.982;8.240;2022-09-17T06:18:48;6.53;;;3.33;;
1525;SDS011;756;49.982;8.240;2022-09-17T06:21:15;5.93;;;2.10;;
1525;SDS011;756;49.982;8.240;2022-09-17T06:23:42;5.00;;;2.27;;
1525;SDS011;756;49.982;8.240;2022-09-17T06:26:09;5.33;;;2.83;;
1525;SDS011;756;49.982;8.240;2022-09-17T06:28:37;10.00;;;3.43;;
1525;SDS011;756;49.982;8.240;2022-09-17T06:31:07;3.77;;;2.17;;
1525;SDS011;756;49.982;8.240;2022-09-17T06:33:35;3.67;;;2.03;;
1525;SDS011;756;49.982;8.240;2022-09-17T06:36:03;7.57;;;2.17;;
1525;SDS011;756;49.982;8.240;2022-09-17T06:38:38;6.20;;;2.17;;
1525;SDS011;756;49.982;8.240;2022-09-17T06:41:05;4.50;;;2.17;;
1525;SDS011;756;49.982;8.240;2022-09-17T06:43:31;4.83;;;2.00;;
1525;SDS011;756;49.982;8.240;2022-09-17T06:45:59;6.03;;;2.53;;
1525;SDS011;756;49.982;8.240;2022-09-17T06:48:28;2.20;;;2.00;;
1525;SDS011;756;49.982;8.240;2022-09-17T06:50:59;7.20;;;2.57;;
1525;SDS011;756;49.982;8.240;2022-09-17T06:53:27;6.33;;;2.00;;
1525;SDS011;756;49.982;8.240;2022-09-17T06:55:58;12.10;;;2.97;;
1525;SDS011;756;49.982;8.240;2022-09-17T06:58:31;7.40;;;2.50;;
1525;SDS011;756;49.982;8.240;2022-09-17T07:00:59;4.47;;;2.30;;
1525;SDS011;756;49.982;8.240;2022-09-17T07:03:27;4.77;;;2.53;;
1525;SDS011;756;49.982;8.240;2022-09-17T07:05:55;4.80;;;2.10;;
1525;SDS011;756;49.982;8.240;2022-09-17T07:08:22;3.87;;;2.33;;
1525;SDS011;756;49.982;8.240;2022-09-17T07:10:49;7.13;;;2.53;;
1525;SDS011;756;49.982;8.240;2022-09-17T07:13:15;5.90;;;2.33;;
1525;SDS011;756;49.982;8.240;2022-09-17T07:15:42;4.90;;;2.57;;
1525;SDS011;756;49.982;8.240;2022-09-17T07:18:16;7.20;;;2.50;;
1525;SDS011;756;49.982;8.240;2022-09-17T07:20:43;6.47;;;2.40;;
1525;SDS011;756;49.982;8.240;2022-09-17T07:23:10;7.43;;;2.80;;
1525;SDS011;756;49.982;8.240;2022-09-17T07:25:36;8.90;;;2.40;;
1525;SDS011;756;49.982;8.240;2022-09-17T07:28:03;6.00;;;2.83;;
1525;SDS011;756;49.982;8.240;2022-09-17T07:30:29;11.77;;;3.20;;
1525;SDS011;756;49.982;8.240;2022-09-17T07:32:59;6.83;;;3.90;;
1525;SDS011;756;49.982;8.240;2022-09-17T07:35:27;6.93;;;3.23;;
1525;SDS011;756;49.982;8.240;2022-09-17T07:37:54;5.50;;;2.10;;
1525;SDS011;756;49.982;8.240;2022-09-17T07:40:20;5.33;;;2.10;;
1525;SDS011;756;49.982;8.240;2022-09-17T07:42:47;6.13;;;2.40;;
1525;SDS011;756;49.982;8.240;2022-09-17T07:45:14;4.67;;;3.53;;
1525;SDS011;756;49.982;8.240;2022-09-17T07:47:40;9.67;;;4.50;;
1525;SDS011;756;49.982;8.240;2022-09-17T07:50:07;10.20;;;2.40;;
1525;SDS011;756;49.982;8.240;2022-09-17T07:52:35;3.47;;;2.00;;
1525;SDS011;756;49.982;8.240;2022-09-17T07:55:05;5.37;;;2.23;;
1525;SDS011;756;49.982;8.240;2022-09-17T07:57:32;9.97;;;2.33;;
1525;SDS011;756;49.982;8.240;2022-09-17T07:59:59;5.83;;;2.10;;
1525;SDS011;756;49.982;8.240;2022-09-17T08:02:25;4.57;;;2.00;;
1525;SDS011;756;49.982;8.240;2022-09-17T08:04:53;6.53;;;3.33;;
1525;SDS011;756;49.982;8.240;2022-09-17T08:07:20;3.83;;;1.80;;
1525;SDS011;756;49.982;8.240;2022-09-17T08:10:01;6.53;;;2.40;;
1525;SDS011;756;49.982;8.240;2022-09-17T08:12:31;6.17;;;1.93;;
1525;SDS011;756;49.982;8.240;2022-09-17T08:15:00;3.90;;;2.30;;
1525;SDS011;756;49.982;8.240;2022-09-17T08:17:26;6.90;;;2.20;;
1525;SDS011;756;49.982;8.240;2022-09-17T08:19:53;5.80;;;1.80;;
1525;SDS011;756;49.982;8.240;2022-09-17T08:22:20;6.17;;;2.10;;
1525;SDS011;756;49.982;8.240;2022-09-17T08:24:46;5.70;;;2.43;;
1525;SDS011;756;49.982;8.240;2022-09-17T08:27:13;4.33;;;2.43;;
1525;SDS011;756;49.982;8.240;2022-09-17T08:29:40;3.60;;;2.07;;
1525;SDS011;756;49.982;8.240;2022-09-17T08:32:06;6.77;;;2.37;;
1525;SDS011;756;49.982;8.240;2022-09-17T08:34:33;9.63;;;2.40;;
1525;SDS011;756;49.982;8.240;2022-09-17T08:37:01;6.53;;;2.70;;
1525;SDS011;756;49.982;8.240;2022-09-17T08:39:28;4.53;;;1.60;;
1525;SDS011;756;49.982;8.240;2022-09-17T08:42:04;4.97;;;2.17;;
1525;SDS011;756;49.982;8.240;2022-09-17T08:44:46;8.63;;;2.03;;
1525;SDS011;756;49.982;8.240;2022-09-17T08:47:27;3.77;;;1.70;;
1525;SDS011;756;49.982;8.240;2022-09-17T08:50:02;7.27;;;2.60;;
1525;SDS011;756;49.982;8.240;2022-09-17T09:00:13;5.47;;;1.83;;
1525;SDS011;756;49.982;8.240;2022-09-17T09:05:19;3.50;;;2.30;;
1525;SDS011;756;49.982;8.240;2022-09-17T09:07:56;11.77;;;2.90;;
1525;SDS011;756;49.982;8.240;2022-09-17T09:10:51;9.57;;;2.30;;
1525;SDS011;756;49.982;8.240;2022-09-17T09:13:21;5.77;;;2.03;;
1525;SDS011;756;49.982;8.240;2022-09-17T09:15:58;5.43;;;1.70;;
1525;SDS011;756;49.982;8.240;2022-09-17T09:18:36;4.27;;;1.40;;
1525;SDS011;756;49.982;8.240;2022-09-17T09:21:10;6.37;;;1.87;;
1525;SDS011;756;49.982;8.240;2022-09-17T09:32:57;2.50;;;1.90;;
1525;SDS011;756;49.982;8.240;2022-09-17T09:35:34;3.20;;;1.40;;
1525;SDS011;756;49.982;8.240;2022-09-17T09:43:44;2.87;;;1.17;;
1525;SDS011;756;49.982;8.240;2022-09-17T09:46:36;2.67;;;1.60;;
1525;SDS011;756;49.982;8.240;2022-09-17T09:57:05;3.37;;;1.27;;
1525;SDS011;756;49.982;8.240;2022-09-17T09:59:37;4.00;;;1.43;;
1525;SDS011;756;49.982;8.240;2022-09-17T10:02:06;3.13;;;1.17;;
1525;SDS011;756;49.982;8.240;2022-09-17T10:04:34;1.60;;;1.13;;
1525;SDS011;756;49.982;8.240;2022-09-17T10:07:02;4.20;;;1.67;;
1525;SDS011;756;49.982;8.240;2022-09-17T10:09:32;1.37;;;0.77;;
1525;SDS011;756;49.982;8.240;2022-09-17T10:14:35;5.00;;;1.53;;
1525;SDS011;756;49.982;8.240;2022-09-17T10:17:37;2.30;;;1.20;;
1525;SDS011;756;49.982;8.240;2022-09-17T10:22:31;2.30;;;1.17;;
1525;SDS011;756;49.982;8.240;2022-09-17T10:25:00;5.13;;;1.93;;
1525;SDS011;756;49.982;8.240;2022-09-17T10:27:29;2.30;;;1.10;;
1525;SDS011;756;49.982;8.240;2022-09-17T10:30:17;5.33;;;1.13;;
1525;SDS011;756;49.982;8.240;2022-09-17T10:32:52;2.80;;;0.80;;
1525;SDS011;756;49.982;8.240;2022-09-17T10:35:58;2.83;;;0.83;;
1525;SDS011;756;49.982;8.240;2022-09-17T10:38:38;3.13;;;1.00;;
1525;SDS011;756;49.982;8.240;2022-09-17T10:43:49;1.33;;;1.00;;
1525;SDS011;756;49.982;8.240;2022-09-17T10:46:18;3.23;;;1.10;;
1525;SDS011;756;49.982;8.240;2022-09-17T10:48:56;5.20;;;1.20;;
1525;SDS011;756;49.982;8.240;2022-09-17T10:51:33;2.77;;;1.23;;
1525;SDS011;756;49.982;8.240;2022-09-17T10:56:47;4.03;;;1.37;;
1525;SDS011;756;49.982;8.240;2022-09-17T11:18:43;4.33;;;1.93;;
1525;SDS011;756;49.982;8.240;2022-09-17T11:21:23;1.00;;;0.80;;
1525;SDS011;756;49.982;8.240;2022-09-17T11:30:21;2.50;;;0.93;;
1525;SDS011;756;49.982;8.240;2022-09-17T11:35:20;2.87;;;0.70;;
1525;SDS011;756;49.982;8.240;2022-09-17T11:37:57;3.43;;;0.90;;
1525;SDS011;756;49.982;8.240;2022-09-17T11:40:34;5.80;;;1.03;;
1525;SDS011;756;49.982;8.240;2022-09-17T11:43:25;3.57;;;0.77;;
1525;SDS011;756;49.982;8.240;2022-09-17T11:45:59;9.40;;;2.13;;
1525;SDS011;756;49.982;8.240;2022-09-17T11:49:03;4.23;;;0.77;;
1525;SDS011;756;49.982;8.240;2022-09-17T11:51:40;2.87;;;1.07;;
1525;SDS011;756;49.982;8.240;2022-09-17T11:54:22;1.73;;;1.00;;
1525;SDS011;756;49.982;8.240;2022-09-17T12:00:03;3.53;;;0.80;;
1525;SDS011;756;49.982;8.240;2022-09-17T12:05:51;7.13;;;1.57;;
1525;SDS011;756;49.982;8.240;2022-09-17T12:11:15;1.77;;;0.90;;
1525;SDS011;756;49.982;8.240;2022-09-17T12:14:17;1.00;;;0.80;;
1525;SDS011;756;49.982;8.240;2022-09-17T12:16:51;1.87;;;0.53;;
1525;SDS011;756;49.982;8.240;2022-09-17T12:21:57;1.83;;;0.57;;
1525;SDS011;756;49.982;8.240;2022-09-17T12:24:40;1.57;;;0.93;;
1525;SDS011;756;49.982;8.240;2022-09-17T12:32:51;2.80;;;0.63;;
1525;SDS011;756;49.982;8.240;2022-09-17T12:38:46;1.70;;;0.60;;
1525;SDS011;756;49.982;8.240;2022-09-17T12:49:43;1.93;;;0.53;;
1525;SDS011;756;49.982;8.240;2022-09-17T12:55:20;4.20;;;0.70;;
1525;SDS011;756;49.982;8.240;2022-09-17T13:03:30;3.80;;;0.80;;
1525;SDS011;756;49.982;8.240;2022-09-17T13:14:17;2.20;;;0.80;;
1525;SDS011;756;49.982;8.240;2022-09-17T13:21:48;1.70;;;0.77;;
1525;SDS011;756;49.982;8.240;2022-09-17T13:24:25;1.40;;;0.60;;
1525;SDS011;756;49.982;8.240;2022-09-17T13:26:56;3.53;;;0.60;;
1525;SDS011;756;49.982;8.240;2022-09-17T13:37:36;2.77;;;0.97;;
1525;SDS011;756;49.982;8.240;2022-09-17T13:40:05;1.33;;;0.80;;
1525;SDS011;756;49.982;8.240;2022-09-17T13:42:48;1.80;;;0.57;;
1525;SDS011;756;49.982;8.240;2022-09-17T13:45:20;1.00;;;0.70;;
1525;SDS011;756;49.982;8.240;2022-09-17T13:50:35;3.90;;;0.50;;
1525;SDS011;756;49.982;8.240;2022-09-17T13:53:07;0.87;;;0.60;;
1525;SDS011;756;49.982;8.240;2022-09-17T13:58:11;2.13;;;1.00;;
1525;SDS011;756;49.982;8.240;2022-09-17T14:05:56;1.30;;;0.77;;
1525;SDS011;756;49.982;8.240;2022-09-17T14:08:30;1.80;;;0.70;;
1525;SDS011;756;49.982;8.240;2022-09-17T14:13:55;1.90;;;1.13;;
1525;SDS011;756;49.982;8.240;2022-09-17T14:22:24;2.50;;;0.93;;
1525;SDS011;756;49.982;8.240;2022-09-17T14:24:35;1.60;;;0.73;;
1525;SDS011;756;49.982;8.240;2022-09-17T14:29:49;1.13;;;0.67;;
1525;SDS011;756;49.982;8.240;2022-09-17T14:32:21;0.90;;;0.63;;
1525;SDS011;756;49.982;8.240;2022-09-17T14:34:55;1.10;;;0.53;;
1525;SDS011;756;49.982;8.240;2022-09-17T14:37:22;1.43;;;0.70;;
1525;SDS011;756;49.982;8.240;2022-09-17T14:39:49;2.17;;;0.60;;
1525;SDS011;756;49.982;8.240;2022-09-17T14:42:19;2.00;;;1.53;;
1525;SDS011;756;49.982;8.240;2022-09-17T14:44:58;1.00;;;0.80;;
1525;SDS011;756;49.982;8.240;2022-09-17T14:47:28;4.10;;;0.50;;
1525;SDS011;756;49.982;8.240;2022-09-17T14:50:08;2.93;;;0.70;;
1525;SDS011;756;49.982;8.240;2022-09-17T14:52:49;1.20;;;0.60;;
1525;SDS011;756;49.982;8.240;2022-09-17T14:55:26;1.23;;;0.77;;
1525;SDS011;756;49.982;8.240;2022-09-17T14:57:57;1.80;;;0.63;;
1525;SDS011;756;49.982;8.240;2022-09-17T15:00:32;1.00;;;0.70;;
1525;SDS011;756;49.982;8.240;2022-09-17T15:03:00;0.77;;;0.50;;
1525;SDS011;756;49.982;8.240;2022-09-17T15:05:32;1.80;;;1.10;;
1525;SDS011;756;49.982;8.240;2022-09-17T15:08:18;2.37;;;0.87;;
1525;SDS011;756;49.982;8.240;2022-09-17T15:13:43;3.53;;;0.80;;
1525;SDS011;756;49.982;8.240;2022-09-17T15:16:19;2.47;;;0.90;;
1525;SDS011;756;49.982;8.240;2022-09-17T15:18:48;1.27;;;0.60;;
1525;SDS011;756;49.982;8.240;2022-09-17T15:21:28;1.73;;;0.70;;
1525;SDS011;756;49.982;8.240;2022-09-17T15:24:31;3.77;;;0.67;;
1525;SDS011;756;49.982;8.240;2022-09-17T15:27:17;1.10;;;0.47;;
1525;SDS011;756;49.982;8.240;2022-09-17T15:29:49;1.67;;;0.60;;
1525;SDS011;756;49.982;8.240;2022-09-17T15:32:19;0.73;;;0.43;;
1525;SDS011;756;49.982;8.240;2022-09-17T15:35:01;1.90;;;0.70;;
1525;SDS011;756;49.982;8.240;2022-09-17T15:37:45;1.63;;;0.90;;
1525;SDS011;756;49.982;8.240;2022-09-17T15:40:37;2.30;;;1.03;;
1525;SDS011;756;49.982;8.240;2022-09-17T15:48:53;2.30;;;0.40;;
1525;SDS011;756;49.982;8.240;2022-09-17T15:51:22;0.70;;;0.53;;
1525;SDS011;756;49.982;8.240;2022-09-17T15:53:55;1.17;;;0.97;;
1525;SDS011;756;49.982;8.240;2022-09-17T15:56:24;1.77;;;0.83;;
1525;SDS011;756;49.982;8.240;2022-09-17T15:58:54;3.40;;;0.87;;
1525;SDS011;756;49.982;8.240;2022-09-17T16:01:48;3.80;;;1.50;;
1525;SDS011;756;49.982;8.240;2022-09-17T16:04:18;1.57;;;0.70;;
1525;SDS011;756;49.982;8.240;2022-09-17T16:06:52;0.97;;;0.93;;
1525;SDS011;756;49.982;8.240;2022-09-17T16:09:46;2.20;;;0.73;;
1525;SDS011;756;49.982;8.240;2022-09-17T16:12:25;1.17;;;0.60;;
1525;SDS011;756;49.982;8.240;2022-09-17T16:14:57;2.87;;;0.60;;
1525;SDS011;756;49.982;8.240;2022-09-17T16:17:27;7.40;;;1.37;;
1525;SDS011;756;49.982;8.240;2022-09-17T16:20:19;4.70;;;1.00;;
1525;SDS011;756;49.982;8.240;2022-09-17T16:22:48;3.97;;;0.90;;
1525;SDS011;756;49.982;8.240;2022-09-17T16:25:17;1.93;;;0.50;;
1525;SDS011;756;49.982;8.240;2022-09-17T16:30:18;0.83;;;0.60;;
1525;SDS011;756;49.982;8.240;2022-09-17T16:32:46;2.37;;;0.70;;
1525;SDS011;756;49.982;8.240;2022-09-17T16:35:17;2.30;;;0.80;;
1525;SDS011;756;49.982;8.240;2022-09-17T16:37:49;1.07;;;0.90;;
1525;SDS011;756;49.982;8.240;2022-09-17T16:40:17;1.33;;;0.77;;
1525;SDS011;756;49.982;8.240;2022-09-17T16:42:45;1.50;;;0.47;;
1525;SDS011;756;49.982;8.240;2022-09-17T16:45:13;1.63;;;0.57;;
1525;SDS011;756;49.982;8.240;2022-09-17T16:47:40;1.47;;;0.60;;
1525;SDS011;756;49.982;8.240;2022-09-17T16:50:08;0.70;;;0.67;;
1525;SDS011;756;49.982;8.240;2022-09-17T16:52:39;0.97;;;0.50;;
1525;SDS011;756;49.982;8.240;2022-09-17T16:55:06;1.47;;;0.43;;
1525;SDS011;756;49.982;8.240;2022-09-17T16:57:36;0.80;;;0.57;;
1525;SDS011;756;49.982;8.240;2022-09-17T17:00:06;1.00;;;0.50;;
1525;SDS011;756;49.982;8.240;2022-09-17T17:02:38;0.70;;;0.40;;
1525;SDS011;756;49.982;8.240;2022-09-17T17:05:05;0.90;;;0.50;;
1525;SDS011;756;49.982;8.240;2022-09-17T17:07:33;3.77;;;0.67;;
1525;SDS011;756;49.982;8.240;2022-09-17T17:10:00;1.13;;;0.50;;
1525;SDS011;756;49.982;8.240;2022-09-17T17:12:27;1.90;;;0.70;;
1525;SDS011;756;49.982;8.240;2022-09-17T17:14:53;5.13;;;0.90;;
1525;SDS011;756;49.982;8.240;2022-09-17T17:17:20;3.43;;;0.90;;
1525;SDS011;756;49.982;8.240;2022-09-17T17:19:47;1.40;;;1.00;;
1525;SDS011;756;49.982;8.240;2022-09-17T17:22:14;1.60;;;0.93;;
1525;SDS011;756;49.982;8.240;2022-09-17T17:24:41;0.87;;;0.70;;
1525;SDS011;756;49.982;8.240;2022-09-17T17:27:08;1.50;;;0.77;;
1525;SDS011;756;49.982;8.240;2022-09-17T17:29:34;1.80;;;0.70;;
1525;SDS011;756;49.982;8.240;2022-09-17T17:32:02;1.03;;;0.70;;
1525;SDS011;756;49.982;8.240;2022-09-17T17:34:29;1.83;;;0.90;;
1525;SDS011;756;49.982;8.240;2022-09-17T17:36:57;2.40;;;1.57;;
1525;SDS011;756;49.982;8.240;2022-09-17T17:39:23;3.80;;;1.80;;
1525;SDS011;756;49.982;8.240;2022-09-17T17:41:50;2.00;;;1.30;;
1525;SDS011;756;49.982;8.240;2022-09-17T17:44:19;1.30;;;0.80;;
1525;SDS011;756;49.982;8.240;2022-09-17T17:46:46;4.57;;;1.47;;
1525;SDS011;756;49.982;8.240;2022-09-17T17:49:12;1.67;;;1.10;;
1525;SDS011;756;49.982;8.240;2022-09-17T17:51:39;2.57;;;1.40;;
1525;SDS011;756;49.982;8.240;2022-09-17T17:54:06;1.93;;;1.10;;
1525;SDS011;756;49.982;8.240;2022-09-17T17:56:33;3.33;;;2.00;;
1525;SDS011;756;49.982;8.240;2022-09-17T17:58:59;1.63;;;0.90;;
1525;SDS011;756;49.982;8.240;2022-09-17T18:01:27;2.67;;;2.30;;
1525;SDS011;756;49.982;8.240;2022-09-17T18:03:58;1.47;;;0.93;;
1525;SDS011;756;49.982;8.240;2022-09-17T18:06:27;4.10;;;1.07;;
1525;SDS011;756;49.982;8.240;2022-09-17T18:08:54;1.43;;;0.83;;
1525;SDS011;756;49.982;8.240;2022-09-17T18:11:21;0.90;;;0.73;;
1525;SDS011;756;49.982;8.240;2022-09-17T18:13:52;1.33;;;1.17;;
1525;SDS011;756;49.982;8.240;2022-09-17T18:16:21;1.83;;;1.40;;
1525;SDS011;756;49.982;8.240;2022-09-17T18:18:49;5.17;;;1.00;;
1525;SDS011;756;49.982;8.240;2022-09-17T18:21:17;1.47;;;0.90;;
1525;SDS011;756;49.982;8.240;2022-09-17T18:23:45;1.57;;;1.33;;
1525;SDS011;756;49.982;8.240;2022-09-17T18:26:14;3.47;;;1.20;;
1525;SDS011;756;49.982;8.240;2022-09-17T18:28:48;2.33;;;1.07;;
1525;SDS011;756;49.982;8.240;2022-09-17T18:31:19;1.50;;;1.20;;
1525;SDS011;756;49.982;8.240;2022-09-17T18:33:59;2.47;;;0.97;;
1525;SDS011;756;49.982;8.240;2022-09-17T18:36:28;1.33;;;1.00;;
1525;SDS011;756;49.982;8.240;2022-09-17T18:38:57;4.67;;;1.30;;
1525;SDS011;756;49.982;8.240;2022-09-17T18:41:49;3.10;;;1.67;;
1525;SDS011;756;49.982;8.240;2022-09-17T18:44:16;2.43;;;1.10;;
1525;SDS011;756;49.982;8.240;2022-09-17T18:46:46;2.20;;;0.90;;
1525;SDS011;756;49.982;8.240;2022-09-17T18:49:14;4.03;;;1.03;;
1525;SDS011;756;49.982;8.240;2022-09-17T18:51:41;1.23;;;0.60;;
1525;SDS011;756;49.982;8.240;2022-09-17T18:54:08;1.70;;;0.90;;
1525;SDS011;756;49.982;8.240;2022-09-17T18:56:35;1.93;;;0.90;;
1525;SDS011;756;49.982;8.240;2022-09-17T18:59:02;1.83;;;1.10;;
1525;SDS011;756;49.982;8.240;2022-09-17T19:01:33;1.37;;;1.03;;
1525;SDS011;756;49.982;8.240;2022-09-17T19:04:01;1.30;;;0.90;;
1525;SDS011;756;49.982;8.240;2022-09-17T19:06:28;3.07;;;0.77;;
1525;SDS011;756;49.982;8.240;2022-09-17T19:08:59;1.87;;;0.80;;
1525;SDS011;756;49.982;8.240;2022-09-17T19:11:27;3.53;;;1.00;;
1525;SDS011;756;49.982;8.240;2022-09-17T19:13:54;2.03;;;0.80;;
1525;SDS011;756;49.982;8.240;2022-09-17T19:16:20;3.20;;;0.77;;
1525;SDS011;756;49.982;8.240;2022-09-17T19:18:47;5.97;;;1.03;;